sensor_id;sensor_type;location;lat;lon;timestamp;pressure;altitude;pressure_sealevel;temperature;humidity
75699;BME280;64313;51.018;13.742;2023-07-13T00:02:07;99371.13;;;23.30;48.30
75699;BME280;64313;51.018;13.742;2023-07-13T00:04:33;99365.47;;;23.26;47.78
75699;BME280;64313;51.018;13.742;2023-07-13T00:06:58;99364.66;;;23.26;47.52
75699;BME280;64313;51.018;13.742;2023-07-13T00:09:24;99374.78;;;23.20;47.60
75699;BME280;64313;51.018;13.742;2023-07-13T00:11:52;99370.13;;;23.21;46.45
75699;BME280;64313;51.018;13.742;2023-07-13T00:14:18;99375.09;;;23.19;47.35
75699;BME280;64313;51.018;13.742;2023-07-13T00:16:44;99382.44;;;23.18;47.49
75699;BME280;64313;51.018;13.742;2023-07-13T00:19:10;99388.47;;;23.15;48.42
75699;BME280;64313;51.018;13.742;2023-07-13T00:21:37;99396.97;;;23.14;49.84
75699;BME280;64313;51.018;13.742;2023-07-13T00:24:02;99403.50;;;23.13;49.20
75699;BME280;64313;51.018;13.742;2023-07-13T00:26:28;99419.34;;;23.10;49.80
75699;BME280;64313;51.018;13.742;2023-07-13T00:28:53;99427.03;;;23.08;49.54
75699;BME280;64313;51.018;13.742;2023-07-13T00:31:19;99424.56;;;23.07;50.33
75699;BME280;64313;51.018;13.742;2023-07-13T00:33:45;99430.34;;;23.00;51.04
75699;BME280;64313;51.018;13.742;2023-07-13T00:36:11;99442.66;;;22.98;51.01
75699;BME280;64313;51.018;13.742;2023-07-13T00:38:37;99456.59;;;22.91;52.77
75699;BME280;64313;51.018;13.742;2023-07-13T00:41:04;99469.75;;;22.84;54.48
75699;BME280;64313;51.018;13.742;2023-07-13T00:43:30;99476.88;;;22.80;55.05
75699;BME280;64313;51.018;13.742;2023-07-13T00:48:25;99488.44;;;22.66;55.22
75699;BME280;64313;51.018;13.742;2023-07-13T00:50:53;99481.09;;;22.62;56.63
75699;BME280;64313;51.018;13.742;2023-07-13T00:53:20;99475.69;;;22.57;56.33
75699;BME280;64313;51.018;13.742;2023-07-13T00:55:48;99465.66;;;22.52;56.92
75699;BME280;64313;51.018;13.742;2023-07-13T00:58:15;99458.84;;;22.50;56.44
75699;BME280;64313;51.018;13.742;2023-07-13T01:00:41;99448.31;;;22.43;56.54
75699;BME280;64313;51.018;13.742;2023-07-13T01:03:06;99424.41;;;22.30;58.10
75699;BME280;64313;51.018;13.742;2023-07-13T01:05:34;99397.84;;;22.11;58.36
75699;BME280;64313;51.018;13.742;2023-07-13T01:08:01;99393.28;;;22.01;59.02
75699;BME280;64313;51.018;13.742;2023-07-13T01:10:26;99400.91;;;21.99;57.57
75699;BME280;64313;51.018;13.742;2023-07-13T01:12:52;99399.56;;;21.97;58.28
75699;BME280;64313;51.018;13.742;2023-07-13T01:15:36;99399.09;;;21.85;58.01
75699;BME280;64313;51.018;13.742;2023-07-13T01:18:05;99413.31;;;21.76;60.00
75699;BME280;64313;51.018;13.742;2023-07-13T01:20:31;99416.38;;;21.65;59.18
75699;BME280;64313;51.018;13.742;2023-07-13T01:23:06;99420.75;;;21.55;59.45
75699;BME280;64313;51.018;13.742;2023-07-13T01:25:33;99418.91;;;21.46;60.09
75699;BME280;64313;51.018;13.742;2023-07-13T01:27:59;99417.00;;;21.36;61.13
75699;BME280;64313;51.018;13.742;2023-07-13T01:30:24;99415.66;;;21.28;61.05
75699;BME280;64313;51.018;13.742;2023-07-13T01:32:49;99416.25;;;21.20;61.80
75699;BME280;64313;51.018;13.742;2023-07-13T01:35:15;99419.25;;;21.13;61.78
75699;BME280;64313;51.018;13.742;2023-07-13T01:37:42;99414.91;;;21.12;62.17
75699;BME280;64313;51.018;13.742;2023-07-13T01:40:11;99413.28;;;21.06;63.58
75699;BME280;64313;51.018;13.742;2023-07-13T01:42:37;99413.28;;;21.01;63.58
75699;BME280;64313;51.018;13.742;2023-07-13T01:45:03;99415.78;;;20.92;61.77
75699;BME280;64313;51.018;13.742;2023-07-13T01:47:30;99419.03;;;20.89;61.50
75699;BME280;64313;51.018;13.742;2023-07-13T01:49:56;99413.63;;;20.84;62.04
75699;BME280;64313;51.018;13.742;2023-07-13T01:52:21;99420.69;;;20.75;64.15
75699;BME280;64313;51.018;13.742;2023-07-13T01:54:47;99413.09;;;20.72;64.60
75699;BME280;64313;51.018;13.742;2023-07-13T01:57:12;99401.44;;;20.66;64.20
75699;BME280;64313;51.018;13.742;2023-07-13T01:59:37;99414.72;;;20.63;63.91
75699;BME280;64313;51.018;13.742;2023-07-13T02:02:05;99396.81;;;20.62;62.44
75699;BME280;64313;51.018;13.742;2023-07-13T02:04:30;99398.41;;;20.63;63.55
75699;BME280;64313;51.018;13.742;2023-07-13T02:06:55;99409.84;;;20.60;62.97
75699;BME280;64313;51.018;13.742;2023-07-13T02:09:21;99402.72;;;20.53;65.26
75699;BME280;64313;51.018;13.742;2023-07-13T02:11:47;99406.56;;;20.42;65.26
75699;BME280;64313;51.018;13.742;2023-07-13T02:14:13;99409.00;;;20.39;64.88
75699;BME280;64313;51.018;13.742;2023-07-13T02:16:40;99406.00;;;20.40;65.34
75699;BME280;64313;51.018;13.742;2023-07-13T02:19:05;99401.38;;;20.36;65.27
75699;BME280;64313;51.018;13.742;2023-07-13T02:21:31;99406.00;;;20.35;65.40
75699;BME280;64313;51.018;13.742;2023-07-13T02:23:56;99404.09;;;20.36;65.47
75699;BME280;64313;51.018;13.742;2023-07-13T02:26:22;99404.38;;;20.34;65.20
75699;BME280;64313;51.018;13.742;2023-07-13T02:28:48;99406.28;;;20.34;64.76
75699;BME280;64313;51.018;13.742;2023-07-13T02:31:15;99409.81;;;20.34;65.04
75699;BME280;64313;51.018;13.742;2023-07-13T02:33:40;99412.53;;;20.34;64.91
75699;BME280;64313;51.018;13.742;2023-07-13T02:36:06;99409.28;;;20.32;65.64
75699;BME280;64313;51.018;13.742;2023-07-13T02:38:32;99407.66;;;20.31;65.35
75699;BME280;64313;51.018;13.742;2023-07-13T02:41:03;99418.50;;;20.31;65.06
75699;BME280;64313;51.018;13.742;2023-07-13T02:43:28;99420.94;;;20.27;65.73
75699;BME280;64313;51.018;13.742;2023-07-13T02:45:54;99430.97;;;20.17;67.42
75699;BME280;64313;51.018;13.742;2023-07-13T02:48:20;99426.91;;;20.14;66.29
75699;BME280;64313;51.018;13.742;2023-07-13T02:50:45;99419.56;;;20.15;65.58
75699;BME280;64313;51.018;13.742;2023-07-13T02:53:11;99426.09;;;20.14;65.57
75699;BME280;64313;51.018;13.742;2023-07-13T02:55:36;99429.31;;;20.10;66.57
75699;BME280;64313;51.018;13.742;2023-07-13T02:58:02;99432.03;;;20.05;66.95
75699;BME280;64313;51.018;13.742;2023-07-13T03:00:27;99439.34;;;20.00;67.69
75699;BME280;64313;51.018;13.742;2023-07-13T03:02:54;99436.91;;;19.98;67.58
75699;BME280;64313;51.018;13.742;2023-07-13T03:05:23;99432.00;;;20.00;68.44
75699;BME280;64313;51.018;13.742;2023-07-13T03:07:49;99431.50;;;20.03;66.37
75699;BME280;64313;51.018;13.742;2023-07-13T03:10:14;99435.84;;;20.04;67.11
75699;BME280;64313;51.018;13.742;2023-07-13T03:12:46;99441.25;;;19.99;68.23
75699;BME280;64313;51.018;13.742;2023-07-13T03:15:21;99437.44;;;19.95;68.18
75699;BME280;64313;51.018;13.742;2023-07-13T03:17:48;99437.44;;;19.95;68.76
75699;BME280;64313;51.018;13.742;2023-07-13T03:20:14;99435.50;;;19.91;69.69
75699;BME280;64313;51.018;13.742;2023-07-13T03:22:39;99428.22;;;19.91;69.28
75699;BME280;64313;51.018;13.742;2023-07-13T03:25:05;99436.06;;;19.93;68.50
75699;BME280;64313;51.018;13.742;2023-07-13T03:27:30;99442.31;;;19.93;67.33
75699;BME280;64313;51.018;13.742;2023-07-13T03:29:56;99444.50;;;19.91;67.53
75699;BME280;64313;51.018;13.742;2023-07-13T03:32:22;99444.19;;;19.82;69.23
75699;BME280;64313;51.018;13.742;2023-07-13T03:34:47;99446.34;;;19.80;69.14
75699;BME280;64313;51.018;13.742;2023-07-13T03:37:13;99447.19;;;19.81;68.70
75699;BME280;64313;51.018;13.742;2023-07-13T03:39:39;99449.59;;;19.77;69.75
75699;BME280;64313;51.018;13.742;2023-07-13T03:42:05;99452.59;;;19.76;68.99
75699;BME280;64313;51.018;13.742;2023-07-13T03:44:32;99451.50;;;19.77;68.58
75699;BME280;64313;51.018;13.742;2023-07-13T03:46:57;99446.06;;;19.77;68.26
75699;BME280;64313;51.018;13.742;2023-07-13T03:49:22;99456.38;;;19.75;69.28
75699;BME280;64313;51.018;13.742;2023-07-13T03:51:48;99450.38;;;19.73;68.03
75699;BME280;64313;51.018;13.742;2023-07-13T03:54:13;99463.44;;;19.76;68.57
75699;BME280;64313;51.018;13.742;2023-07-13T03:56:38;99461.25;;;19.78;67.12
75699;BME280;64313;51.018;13.742;2023-07-13T03:59:06;99465.59;;;19.74;68.52
75699;BME280;64313;51.018;13.742;2023-07-13T04:01:31;99467.16;;;19.64;68.70
75699;BME280;64313;51.018;13.742;2023-07-13T04:03:57;99465.50;;;19.58;69.19
75699;BME280;64313;51.018;13.742;2023-07-13T04:06:27;99477.41;;;19.57;69.23
75699;BME280;64313;51.018;13.742;2023-07-13T04:08:54;99494.81;;;19.61;69.88
75699;BME280;64313;51.018;13.742;2023-07-13T04:11:22;99490.44;;;19.60;69.14
75699;BME280;64313;51.018;13.742;2023-07-13T04:13:48;99492.63;;;19.58;69.80
75699;BME280;64313;51.018;13.742;2023-07-13T04:16:16;99496.69;;;19.56;70.32
75699;BME280;64313;51.018;13.742;2023-07-13T04:18:42;99496.69;;;19.56;70.15
75699;BME280;64313;51.018;13.742;2023-07-13T04:21:08;99497.50;;;19.56;71.13
75699;BME280;64313;51.018;13.742;2023-07-13T04:23:35;99500.22;;;19.61;70.27
75699;BME280;64313;51.018;13.742;2023-07-13T04:26:00;99500.50;;;19.65;70.93
75699;BME280;64313;51.018;13.742;2023-07-13T04:28:26;99495.41;;;19.69;69.91
75699;BME280;64313;51.018;13.742;2023-07-13T04:30:53;99495.44;;;19.74;70.69
75699;BME280;64313;51.018;13.742;2023-07-13T04:33:18;99495.97;;;19.76;70.68
75699;BME280;64313;51.018;13.742;2023-07-13T04:35:50;99505.22;;;19.80;71.12
75699;BME280;64313;51.018;13.742;2023-07-13T04:38:22;99504.16;;;19.81;70.67
75699;BME280;64313;51.018;13.742;2023-07-13T04:40:49;99511.75;;;19.84;70.42
75699;BME280;64313;51.018;13.742;2023-07-13T04:43:15;99507.66;;;19.81;70.33
75699;BME280;64313;51.018;13.742;2023-07-13T04:45:40;99498.72;;;19.81;70.96
75699;BME280;64313;51.018;13.742;2023-07-13T04:48:06;99508.47;;;19.82;70.09
75699;BME280;64313;51.018;13.742;2023-07-13T04:50:31;99512.31;;;19.86;69.02
75699;BME280;64313;51.018;13.742;2023-07-13T04:52:56;99516.63;;;19.82;71.67
75699;BME280;64313;51.018;13.742;2023-07-13T04:55:22;99509.56;;;19.81;71.50
75699;BME280;64313;51.018;13.742;2023-07-13T04:57:47;99521.50;;;19.85;70.81
75699;BME280;64313;51.018;13.742;2023-07-13T05:00:13;99516.63;;;19.87;71.17
75699;BME280;64313;51.018;13.742;2023-07-13T05:02:43;99527.47;;;19.87;70.46
75699;BME280;64313;51.018;13.742;2023-07-13T05:05:09;99528.84;;;19.89;70.87
75699;BME280;64313;51.018;13.742;2023-07-13T05:07:34;99520.97;;;19.93;70.50
75699;BME280;64313;51.018;13.742;2023-07-13T05:09:59;99524.81;;;19.97;69.88
75699;BME280;64313;51.018;13.742;2023-07-13T05:12:25;99522.66;;;19.99;70.08
75699;BME280;64313;51.018;13.742;2023-07-13T05:14:51;99522.09;;;20.02;70.08
75699;BME280;64313;51.018;13.742;2023-07-13T05:17:16;99517.25;;;20.04;69.45
75699;BME280;64313;51.018;13.742;2023-07-13T05:19:42;99522.16;;;20.13;69.47
75699;BME280;64313;51.018;13.742;2023-07-13T05:22:08;99520.00;;;20.20;68.89
75699;BME280;64313;51.018;13.742;2023-07-13T05:24:34;99518.91;;;20.26;69.01
75699;BME280;64313;51.018;13.742;2023-07-13T05:26:59;99520.56;;;20.32;68.47
75699;BME280;64313;51.018;13.742;2023-07-13T05:29:24;99517.06;;;20.37;68.71
75699;BME280;64313;51.018;13.742;2023-07-13T05:31:50;99513.53;;;20.41;68.77
75699;BME280;64313;51.018;13.742;2023-07-13T05:34:15;99517.06;;;20.42;68.40
75699;BME280;64313;51.018;13.742;2023-07-13T05:36:41;99521.94;;;20.45;68.56
75699;BME280;64313;51.018;13.742;2023-07-13T05:39:06;99515.41;;;20.46;67.79
75699;BME280;64313;51.018;13.742;2023-07-13T05:41:32;99525.22;;;20.47;66.89
75699;BME280;64313;51.018;13.742;2023-07-13T05:43:57;99527.94;;;20.47;67.21
75699;BME280;64313;51.018;13.742;2023-07-13T05:46:23;99531.19;;;20.49;66.90
75699;BME280;64313;51.018;13.742;2023-07-13T05:48:48;99530.34;;;20.48;67.58
75699;BME280;64313;51.018;13.742;2023-07-13T05:51:14;99528.19;;;20.50;66.66
75699;BME280;64313;51.018;13.742;2023-07-13T05:53:39;99519.50;;;20.53;65.80
75699;BME280;64313;51.018;13.742;2023-07-13T05:56:04;99522.81;;;20.61;66.17
75699;BME280;64313;51.018;13.742;2023-07-13T05:58:30;99517.66;;;20.69;65.31
75699;BME280;64313;51.018;13.742;2023-07-13T06:01:08;99518.47;;;20.75;65.36
75699;BME280;64313;51.018;13.742;2023-07-13T06:03:35;99510.06;;;20.77;63.21
75699;BME280;64313;51.018;13.742;2023-07-13T06:06:00;99514.16;;;20.79;62.08
75699;BME280;64313;51.018;13.742;2023-07-13T06:08:26;99508.41;;;20.86;62.38
75699;BME280;64313;51.018;13.742;2023-07-13T06:10:52;99520.66;;;20.93;62.72
75699;BME280;64313;51.018;13.742;2023-07-13T06:13:17;99523.91;;;21.01;61.37
75699;BME280;64313;51.018;13.742;2023-07-13T06:15:48;99532.06;;;21.11;61.49
75699;BME280;64313;51.018;13.742;2023-07-13T06:18:14;99533.13;;;21.20;61.97
75699;BME280;64313;51.018;13.742;2023-07-13T06:20:39;99541.84;;;21.27;61.30
75699;BME280;64313;51.018;13.742;2023-07-13T06:23:05;99532.31;;;21.35;60.97
75699;BME280;64313;51.018;13.742;2023-07-13T06:25:30;99543.19;;;21.45;60.95
75699;BME280;64313;51.018;13.742;2023-07-13T06:27:55;99541.25;;;21.51;60.15
75699;BME280;64313;51.018;13.742;2023-07-13T06:30:21;99539.34;;;21.56;59.58
75699;BME280;64313;51.018;13.742;2023-07-13T06:32:46;99538.78;;;21.65;60.40
75699;BME280;64313;51.018;13.742;2023-07-13T06:35:11;99541.78;;;21.63;58.90
75699;BME280;64313;51.018;13.742;2023-07-13T06:37:38;99539.59;;;21.70;59.27
75699;BME280;64313;51.018;13.742;2023-07-13T06:40:04;99537.66;;;21.76;59.44
75699;BME280;64313;51.018;13.742;2023-07-13T06:42:30;99542.84;;;21.77;59.69
75699;BME280;64313;51.018;13.742;2023-07-13T06:44:55;99547.41;;;21.82;60.85
75699;BME280;64313;51.018;13.742;2023-07-13T06:47:20;99544.16;;;21.90;59.71
75699;BME280;64313;51.018;13.742;2023-07-13T06:49:46;99545.47;;;21.98;59.29
75699;BME280;64313;51.018;13.742;2023-07-13T06:52:11;99551.69;;;22.03;59.74
75699;BME280;64313;51.018;13.742;2023-07-13T06:54:36;99561.75;;;22.08;59.76
75699;BME280;64313;51.018;13.742;2023-07-13T06:57:02;99553.28;;;22.10;60.15
75699;BME280;64313;51.018;13.742;2023-07-13T06:59:27;99567.19;;;22.08;58.64
75699;BME280;64313;51.018;13.742;2023-07-13T07:01:52;99564.19;;;22.04;58.85
75699;BME280;64313;51.018;13.742;2023-07-13T07:04:18;99569.38;;;22.06;59.97
75699;BME280;64313;51.018;13.742;2023-07-13T07:06:43;99563.66;;;22.13;59.28
75699;BME280;64313;51.018;13.742;2023-07-13T07:09:08;99569.34;;;22.21;59.15
75699;BME280;64313;51.018;13.742;2023-07-13T07:11:34;99571.19;;;22.31;58.52
75699;BME280;64313;51.018;13.742;2023-07-13T07:13:59;99581.25;;;22.36;56.90
75699;BME280;64313;51.018;13.742;2023-07-13T07:16:25;99567.91;;;22.34;56.52
75699;BME280;64313;51.018;13.742;2023-07-13T07:18:50;99571.72;;;22.38;56.56
75699;BME280;64313;51.018;13.742;2023-07-13T07:21:15;99574.44;;;22.38;55.53
75699;BME280;64313;51.018;13.742;2023-07-13T07:23:42;99576.59;;;22.41;53.94
75699;BME280;64313;51.018;13.742;2023-07-13T07:26:07;99577.09;;;22.49;53.28
75699;BME280;64313;51.018;13.742;2023-07-13T07:28:34;99579.81;;;22.49;53.06
75699;BME280;64313;51.018;13.742;2023-07-13T07:31:00;99571.06;;;22.57;53.15
75699;BME280;64313;51.018;13.742;2023-07-13T07:33:25;99574.28;;;22.64;51.46
75699;BME280;64313;51.018;13.742;2023-07-13T07:35:51;99578.31;;;22.72;52.66
75699;BME280;64313;51.018;13.742;2023-07-13T07:38:16;99563.00;;;22.81;51.66
75699;BME280;64313;51.018;13.742;2023-07-13T07:40:42;99566.72;;;22.90;52.62
75699;BME280;64313;51.018;13.742;2023-07-13T07:43:08;99562.06;;;23.01;51.93
75699;BME280;64313;51.018;13.742;2023-07-13T07:45:34;99571.75;;;23.12;50.61
75699;BME280;64313;51.018;13.742;2023-07-13T07:47:59;99568.72;;;23.19;50.27
75699;BME280;64313;51.018;13.742;2023-07-13T07:50:26;99568.41;;;23.20;51.25
75699;BME280;64313;51.018;13.742;2023-07-13T07:52:51;99561.81;;;23.26;50.80
75699;BME280;64313;51.018;13.742;2023-07-13T07:55:17;99562.59;;;23.32;50.61
75699;BME280;64313;51.018;13.742;2023-07-13T07:57:42;99563.66;;;23.36;49.87
75699;BME280;64313;51.018;13.742;2023-07-13T08:00:08;99561.16;;;23.40;50.21
75699;BME280;64313;51.018;13.742;2023-07-13T08:02:39;99569.28;;;23.45;50.69
75699;BME280;64313;51.018;13.742;2023-07-13T08:05:07;99564.63;;;23.45;50.78
75699;BME280;64313;51.018;13.742;2023-07-13T08:07:33;99569.00;;;23.46;50.20
75699;BME280;64313;51.018;13.742;2023-07-13T08:09:58;99569.75;;;23.52;49.36
75699;BME280;64313;51.018;13.742;2023-07-13T08:12:24;99575.44;;;23.55;49.00
75699;BME280;64313;51.018;13.742;2023-07-13T08:14:50;99572.66;;;23.61;49.12
75699;BME280;64313;51.018;13.742;2023-07-13T08:17:21;99575.34;;;23.66;49.08
75699;BME280;64313;51.018;13.742;2023-07-13T08:19:46;99580.72;;;23.71;49.12
75699;BME280;64313;51.018;13.742;2023-07-13T08:22:12;99584.03;;;23.73;48.46
75699;BME280;64313;51.018;13.742;2023-07-13T08:24:38;99582.88;;;23.79;47.67
75699;BME280;64313;51.018;13.742;2023-07-13T08:27:03;99585.03;;;23.82;47.80
75699;BME280;64313;51.018;13.742;2023-07-13T08:29:29;99588.22;;;23.89;47.88
75699;BME280;64313;51.018;13.742;2023-07-13T08:31:57;99583.22;;;23.96;47.14
75699;BME280;64313;51.018;13.742;2023-07-13T08:34:22;99582.31;;;24.01;47.39
75699;BME280;64313;51.018;13.742;2023-07-13T08:36:48;99582.50;;;24.10;47.24
75699;BME280;64313;51.018;13.742;2023-07-13T08:39:13;99581.84;;;24.18;46.65
75699;BME280;64313;51.018;13.742;2023-07-13T08:41:38;99584.16;;;24.30;47.07
75699;BME280;64313;51.018;13.742;2023-07-13T08:44:06;99582.19;;;24.35;46.66
75699;BME280;64313;51.018;13.742;2023-07-13T08:46:38;99585.44;;;24.37;45.30
75699;BME280;64313;51.018;13.742;2023-07-13T08:49:10;99589.47;;;24.45;44.31
75699;BME280;64313;51.018;13.742;2023-07-13T08:51:50;99585.84;;;24.50;45.78
75699;BME280;64313;51.018;13.742;2023-07-13T08:54:21;99585.25;;;24.53;45.17
75699;BME280;64313;51.018;13.742;2023-07-13T08:56:48;99583.13;;;24.50;45.05
75699;BME280;64313;51.018;13.742;2023-07-13T08:59:18;99586.41;;;24.47;46.02
75699;BME280;64313;51.018;13.742;2023-07-13T09:04:34;99594.16;;;24.39;46.58
75699;BME280;64313;51.018;13.742;2023-07-13T09:07:12;99590.38;;;24.35;46.67
75699;BME280;64313;51.018;13.742;2023-07-13T09:12:45;99592.31;;;24.35;46.87
75699;BME280;64313;51.018;13.742;2023-07-13T09:15:39;99597.91;;;24.44;46.22
75699;BME280;64313;51.018;13.742;2023-07-13T09:18:28;99593.22;;;24.49;45.09
75699;BME280;64313;51.018;13.742;2023-07-13T09:21:34;99604.38;;;24.53;45.79
75699;BME280;64313;51.018;13.742;2023-07-13T09:24:50;99606.16;;;24.63;44.88
75699;BME280;64313;51.018;13.742;2023-07-13T09:27:21;99602.53;;;24.67;43.90
75699;BME280;64313;51.018;13.742;2023-07-13T09:30:15;99610.69;;;24.72;45.13
75699;BME280;64313;51.018;13.742;2023-07-13T09:32:51;99615.22;;;24.77;43.83
75699;BME280;64313;51.018;13.742;2023-07-13T09:35:21;99617.97;;;24.77;43.54
75699;BME280;64313;51.018;13.742;2023-07-13T09:37:47;99614.41;;;24.76;42.29
75699;BME280;64313;51.018;13.742;2023-07-13T09:40:20;99615.75;;;24.79;42.57
75699;BME280;64313;51.018;13.742;2023-07-13T09:42:48;99611.09;;;24.79;44.44
75699;BME280;64313;51.018;13.742;2023-07-13T09:45:17;99616.56;;;24.79;43.72
75699;BME280;64313;51.018;13.742;2023-07-13T09:47:59;99619.97;;;24.71;43.31
75699;BME280;64313;51.018;13.742;2023-07-13T09:50:24;99623.28;;;24.68;42.95
75699;BME280;64313;51.018;13.742;2023-07-13T09:52:50;99624.97;;;24.64;44.19
75699;BME280;64313;51.018;13.742;2023-07-13T09:55:37;99628.25;;;24.66;44.09
75699;BME280;64313;51.018;13.742;2023-07-13T09:58:05;99633.34;;;24.73;43.71
75699;BME280;64313;51.018;13.742;2023-07-13T10:00:34;99631.63;;;24.77;43.96
75699;BME280;64313;51.018;13.742;2023-07-13T10:03:16;99630.75;;;24.81;43.45
75699;BME280;64313;51.018;13.742;2023-07-13T10:05:44;99625.97;;;24.92;44.93
75699;BME280;64313;51.018;13.742;2023-07-13T10:08:25;99632.69;;;25.00;43.80
75699;BME280;64313;51.018;13.742;2023-07-13T10:11:08;99633.09;;;25.07;43.83
75699;BME280;64313;51.018;13.742;2023-07-13T10:13:36;99632.53;;;25.10;43.55
75699;BME280;64313;51.018;13.742;2023-07-13T10:16:04;99623.94;;;25.17;43.42
75699;BME280;64313;51.018;13.742;2023-07-13T10:21:18;99623.28;;;25.25;43.65
75699;BME280;64313;51.018;13.742;2023-07-13T10:23:48;99624.00;;;25.31;40.65
75699;BME280;64313;51.018;13.742;2023-07-13T10:26:23;99626.94;;;25.34;42.98
75699;BME280;64313;51.018;13.742;2023-07-13T10:28:53;99624.94;;;25.40;42.12
75699;BME280;64313;51.018;13.742;2023-07-13T10:31:20;99636.41;;;25.42;42.73
75699;BME280;64313;51.018;13.742;2023-07-13T10:33:46;99624.34;;;25.43;42.55
75699;BME280;64313;51.018;13.742;2023-07-13T10:36:26;99628.41;;;25.45;42.23
75699;BME280;64313;51.018;13.742;2023-07-13T10:38:54;99628.09;;;25.47;41.62
75699;BME280;64313;51.018;13.742;2023-07-13T10:41:21;99623.13;;;25.49;41.31
75699;BME280;64313;51.018;13.742;2023-07-13T10:43:53;99609.34;;;25.54;42.21
75699;BME280;64313;51.018;13.742;2023-07-13T10:46:20;99616.66;;;25.59;41.83
75699;BME280;64313;51.018;13.742;2023-07-13T10:48:51;99615.25;;;25.61;42.50
75699;BME280;64313;51.018;13.742;2023-07-13T10:51:18;99616.28;;;25.65;41.86
75699;BME280;64313;51.018;13.742;2023-07-13T10:53:48;99609.69;;;25.66;41.33
75699;BME280;64313;51.018;13.742;2023-07-13T10:56:33;99614.25;;;25.71;42.02
75699;BME280;64313;51.018;13.742;2023-07-13T10:59:15;99613.22;;;25.67;41.31
75699;BME280;64313;51.018;13.742;2023-07-13T11:04:18;99602.41;;;25.76;41.22
75699;BME280;64313;51.018;13.742;2023-07-13T11:06:48;99605.16;;;25.76;40.88
75699;BME280;64313;51.018;13.742;2023-07-13T11:09:33;99605.63;;;25.78;41.20
75699;BME280;64313;51.018;13.742;2023-07-13T11:12:00;99595.00;;;25.76;39.61
75699;BME280;64313;51.018;13.742;2023-07-13T11:14:30;99597.31;;;25.83;40.37
75699;BME280;64313;51.018;13.742;2023-07-13T11:16:57;99601.63;;;25.89;40.95
75699;BME280;64313;51.018;13.742;2023-07-13T11:24:50;99602.00;;;26.10;38.48
75699;BME280;64313;51.018;13.742;2023-07-13T11:27:36;99593.69;;;26.15;39.15
75699;BME280;64313;51.018;13.742;2023-07-13T11:30:20;99601.50;;;26.22;39.08
75699;BME280;64313;51.018;13.742;2023-07-13T11:32:50;99602.41;;;26.31;39.14
75699;BME280;64313;51.018;13.742;2023-07-13T11:35:22;99603.91;;;26.37;38.98
75699;BME280;64313;51.018;13.742;2023-07-13T11:37:49;99598.84;;;26.44;39.89
75699;BME280;64313;51.018;13.742;2023-07-13T11:40:14;99594.03;;;26.50;39.41
75699;BME280;64313;51.018;13.742;2023-07-13T11:42:40;99591.31;;;26.50;39.82
75699;BME280;64313;51.018;13.742;2023-07-13T11:45:19;99584.69;;;26.51;39.51
75699;BME280;64313;51.018;13.742;2023-07-13T11:47:45;99595.38;;;26.52;40.09
75699;BME280;64313;51.018;13.742;2023-07-13T11:50:21;99601.97;;;26.51;38.61
75699;BME280;64313;51.018;13.742;2023-07-13T11:52:52;99593.25;;;26.49;38.72
75699;BME280;64313;51.018;13.742;2023-07-13T11:55:21;99599.03;;;26.48;39.02
75699;BME280;64313;51.018;13.742;2023-07-13T11:57:55;99595.47;;;26.47;38.70
75699;BME280;64313;51.018;13.742;2023-07-13T12:00:25;99592.09;;;26.50;39.26
75699;BME280;64313;51.018;13.742;2023-07-13T12:02:54;99593.16;;;26.54;37.84
75699;BME280;64313;51.018;13.742;2023-07-13T12:05:21;99590.59;;;26.58;38.19
75699;BME280;64313;51.018;13.742;2023-07-13T12:07:47;99586.44;;;26.61;38.18
75699;BME280;64313;51.018;13.742;2023-07-13T12:13:02;99583.38;;;26.62;38.71
75699;BME280;64313;51.018;13.742;2023-07-13T12:15:43;99590.00;;;26.61;38.24
75699;BME280;64313;51.018;13.742;2023-07-13T12:18:22;99586.44;;;26.61;38.52
75699;BME280;64313;51.018;13.742;2023-07-13T12:20:50;99576.47;;;26.65;37.97
75699;BME280;64313;51.018;13.742;2023-07-13T12:23:33;99584.28;;;26.71;39.81
75699;BME280;64313;51.018;13.742;2023-07-13T12:26:03;99579.09;;;26.70;38.64
75699;BME280;64313;51.018;13.742;2023-07-13T12:28:37;99577.59;;;26.64;38.46
75699;BME280;64313;51.018;13.742;2023-07-13T12:31:07;99571.63;;;26.62;37.31
75699;BME280;64313;51.018;13.742;2023-07-13T12:33:33;99575.34;;;26.66;37.55
75699;BME280;64313;51.018;13.742;2023-07-13T12:36:03;99574.75;;;26.69;38.39
75699;BME280;64313;51.018;13.742;2023-07-13T12:38:31;99569.13;;;26.74;38.73
75699;BME280;64313;51.018;13.742;2023-07-13T12:40:57;99578.84;;;26.80;39.71
75699;BME280;64313;51.018;13.742;2023-07-13T12:43:23;99574.19;;;26.81;39.35
75699;BME280;64313;51.018;13.742;2023-07-13T12:46:01;99574.19;;;26.81;38.42
75699;BME280;64313;51.018;13.742;2023-07-13T12:48:27;99585.78;;;26.77;37.49
75699;BME280;64313;51.018;13.742;2023-07-13T12:50:54;99583.19;;;26.81;37.29
75699;BME280;64313;51.018;13.742;2023-07-13T12:53:22;99582.59;;;26.84;37.79
75699;BME280;64313;51.018;13.742;2023-07-13T12:55:56;99581.97;;;26.87;37.25
75699;BME280;64313;51.018;13.742;2023-07-13T12:58:27;99572.31;;;26.90;37.42
75699;BME280;64313;51.018;13.742;2023-07-13T13:00:55;99575.06;;;26.90;36.38
75699;BME280;64313;51.018;13.742;2023-07-13T13:03:30;99572.19;;;26.95;38.44
75699;BME280;64313;51.018;13.742;2023-07-13T13:06:20;99568.81;;;26.98;36.70
75699;BME280;64313;51.018;13.742;2023-07-13T13:08:50;99572.06;;;27.00;37.90
75699;BME280;64313;51.018;13.742;2023-07-13T13:11:17;99569.81;;;27.02;35.31
75699;BME280;64313;51.018;13.742;2023-07-13T13:13:44;99572.56;;;27.02;36.08
75699;BME280;64313;51.018;13.742;2023-07-13T13:16:19;99571.63;;;27.07;35.72
75699;BME280;64313;51.018;13.742;2023-07-13T13:18:45;99566.75;;;27.04;34.78